Time,TemperatureF,DewpointF,PressureIn,WindDirection,WindDirectionDegrees,WindSpeedMPH,WindSpeedGustMPH,Humidity,HourlyPrecipIn,Conditions,Clouds,dailyrainin,SolarRadiationWatts/m^2,SoftwareType,DateUTC
2014-01-13 00:02:00,33.0,27.0,-100.00,South,188,2.0,5.0,78,0.01,,,-99.99,12.000000,,2014-01-13 00:02:00,
2014-01-13 00:22:00,33.0,28.0,-100.00,SW,231,2.0,6.0,82,0.00,,,-99.99,0.000000,,2014-01-13 00:22:00,
2014-01-13 00:32:00,33.0,28.0,-100.00,SW,231,2.0,6.0,82,0.00,,,-99.99,0.000000,,2014-01-13 00:32:00,
2014-01-13 00:42:00,33.0,28.0,-100.00,SW,231,2.0,6.0,82,0.00,,,-99.99,0.000000,,2014-01-13 00:42:00,
2014-01-13 00:52:00,33.0,28.0,-100.00,SW,231,2.0,6.0,82,0.00,,,-99.99,0.000000,,2014-01-13 00:52:00,
2014-01-13 01:02:00,33.0,28.0,-100.00,SW,231,2.0,6.0,82,0.00,,,-99.99,0.000000,,2014-01-13 01:02:00,
2014-01-13 01:42:00,32.0,27.0,-100.00,SW,232,1.0,6.0,83,0.00,,,-99.99,0.000000,,2014-01-13 01:42:00,
2014-01-13 01:52:00,32.0,27.0,-100.00,SW,232,1.0,6.0,83,0.00,,,-99.99,0.000000,,2014-01-13 01:52:00,
2014-01-13 02:01:00,32.0,27.0,-100.00,SW,232,1.0,6.0,83,0.00,,,-99.99,0.000000,,2014-01-13 02:01:00,
2014-01-13 02:03:00,30.0,27.0,-100.00,SW,228,1.0,4.0,87,0.00,,,-99.99,0.000000,,2014-01-13 02:03:00,
2014-01-13 02:42:00,30.0,27.0,-100.00,SW,228,1.0,4.0,87,0.00,,,-99.99,0.000000,,2014-01-13 02:42:00,
2014-01-13 02:52:00,30.0,27.0,-100.00,SW,228,1.0,4.0,87,0.00,,,-99.99,0.000000,,2014-01-13 02:52:00,
2014-01-13 03:03:00,28.0,26.0,-100.00,North,-999,0.0,3.0,93,0.00,,,-99.99,0.000000,,2014-01-13 03:03:00,
2014-01-13 03:43:00,28.0,26.0,-100.00,North,-999,0.0,3.0,93,0.00,,,-99.99,0.000000,,2014-01-13 03:43:00,
2014-01-13 03:54:00,28.0,26.0,-100.00,North,-999,0.0,3.0,93,0.00,,,-99.99,0.000000,,2014-01-13 03:54:00,
2014-01-13 04:03:00,29.0,26.0,-100.00,WSW,238,1.0,5.0,88,0.00,,,0.01,0.000000,,2014-01-13 04:03:00,
2014-01-13 04:43:00,29.0,26.0,-100.00,WSW,238,1.0,5.0,88,0.00,,,0.01,0.000000,,2014-01-13 04:43:00,
2014-01-13 04:52:00,29.0,26.0,-100.00,WSW,238,1.0,5.0,88,0.00,,,0.01,0.000000,,2014-01-13 04:52:00,
2014-01-13 05:22:00,28.0,26.0,-100.00,North,-999,0.0,3.0,91,0.00,,,0.01,0.000000,,2014-01-13 05:22:00,
2014-01-13 05:33:00,28.0,26.0,-100.00,North,-999,0.0,3.0,91,0.00,,,0.01,0.000000,,2014-01-13 05:33:00,
2014-01-13 05:43:00,28.0,26.0,-100.00,North,-999,0.0,3.0,91,0.00,,,0.01,0.000000,,2014-01-13 05:43:00,
2014-01-13 05:53:00,28.0,26.0,-100.00,North,-999,0.0,3.0,91,0.00,,,0.01,0.000000,,2014-01-13 05:53:00,
2014-01-13 06:02:00,28.0,26.0,-100.00,North,-999,0.0,3.0,91,0.00,,,0.01,0.000000,,2014-01-13 06:02:00,
2014-01-13 06:43:00,25.0,23.0,-100.00,North,-999,0.0,3.0,93,0.00,,,0.01,0.000000,,2014-01-13 06:43:00,
2014-01-13 06:52:00,25.0,23.0,-100.00,North,-999,0.0,3.0,93,0.00,,,0.01,0.000000,,2014-01-13 06:52:00,
2014-01-13 07:02:00,25.0,23.0,-100.00,North,-999,0.0,3.0,93,0.00,,,0.01,0.000000,,2014-01-13 07:02:00,
2014-01-13 07:42:00,24.0,23.0,-100.00,North,-999,0.0,0.0,95,0.00,,,0.01,0.000000,,2014-01-13 07:42:00,
2014-01-13 07:52:00,24.0,23.0,-100.00,North,-999,0.0,0.0,95,0.00,,,0.01,0.000000,,2014-01-13 07:52:00,
2014-01-13 08:02:00,24.0,23.0,-100.00,North,-999,0.0,0.0,95,0.00,,,0.01,0.000000,,2014-01-13 08:02:00,
2014-01-13 08:42:00,22.0,21.0,-100.00,North,-999,0.0,2.0,94,0.00,,,0.01,0.000000,,2014-01-13 08:42:00,
2014-01-13 08:52:00,22.0,21.0,-100.00,North,-999,0.0,2.0,94,0.00,,,0.01,0.000000,,2014-01-13 08:52:00,
2014-01-13 09:02:00,22.0,21.0,-100.00,North,-999,0.0,2.0,94,0.00,,,0.01,0.000000,,2014-01-13 09:02:00,
2014-01-13 10:43:00,26.0,25.0,-100.00,SW,216,1.0,3.0,97,-99.99,,,0.01,0.000000,,2014-01-13 10:43:00,
2014-01-13 10:53:00,26.0,25.0,-100.00,SW,216,1.0,3.0,97,-99.99,,,0.01,0.000000,,2014-01-13 10:53:00,
2014-01-13 11:02:00,26.0,25.0,-100.00,SW,216,1.0,3.0,97,-99.99,,,0.01,0.000000,,2014-01-13 11:02:00,
2014-01-13 11:42:00,29.0,28.0,-100.00,West,269,2.0,6.0,95,0.00,,,0.01,0.000000,,2014-01-13 11:42:00,
2014-01-13 11:53:00,29.0,28.0,-100.00,West,269,2.0,6.0,95,0.00,,,0.01,0.000000,,2014-01-13 11:53:00,
2014-01-13 12:02:00,29.0,28.0,-100.00,West,269,2.0,6.0,95,0.00,,,0.01,0.000000,,2014-01-13 12:02:00,
2014-01-13 12:42:00,30.0,27.0,-100.00,WNW,289,4.0,9.0,88,0.00,,,0.01,0.000000,,2014-01-13 12:42:00,
2014-01-13 12:52:00,30.0,27.0,-100.00,WNW,289,4.0,9.0,88,0.00,,,0.01,0.000000,,2014-01-13 12:52:00,
2014-01-13 13:02:00,30.0,27.0,-100.00,WNW,289,4.0,9.0,88,0.00,,,0.01,0.000000,,2014-01-13 13:02:00,
2014-01-13 13:42:00,29.0,24.0,-100.00,WNW,299,6.0,15.0,81,0.00,,,0.01,0.000000,,2014-01-13 13:42:00,
2014-01-13 13:52:00,29.0,24.0,-100.00,WNW,299,6.0,15.0,81,0.00,,,0.01,0.000000,,2014-01-13 13:52:00,
2014-01-13 14:02:00,29.0,24.0,-100.00,WNW,299,6.0,15.0,81,0.00,,,0.01,0.000000,,2014-01-13 14:02:00,
2014-01-13 14:42:00,29.0,23.0,-100.00,WNW,288,5.0,12.0,78,0.00,,,0.01,1.000000,,2014-01-13 14:42:00,
2014-01-13 14:52:00,29.0,23.0,-100.00,WNW,288,5.0,12.0,78,0.00,,,0.01,1.000000,,2014-01-13 14:52:00,
2014-01-13 15:02:00,29.0,23.0,-100.00,WNW,288,5.0,12.0,78,0.00,,,0.01,1.000000,,2014-01-13 15:02:00,
2014-01-13 15:03:00,29.0,23.0,-100.00,WNW,285,7.0,14.0,77,0.00,,,0.01,10.000000,,2014-01-13 15:03:00,
2014-01-13 15:44:00,29.0,23.0,-100.00,WNW,285,7.0,14.0,77,0.00,,,0.01,10.000000,,2014-01-13 15:44:00,
2014-01-13 15:53:00,29.0,23.0,-100.00,WNW,285,7.0,14.0,77,0.00,,,0.01,10.000000,,2014-01-13 15:53:00,
2014-01-13 16:03:00,28.0,19.0,-100.00,West,273,8.0,16.0,68,0.00,,,0.01,46.000000,,2014-01-13 16:03:00,
2014-01-13 16:43:00,28.0,19.0,-100.00,West,273,8.0,16.0,68,0.00,,,0.01,46.000000,,2014-01-13 16:43:00,
2014-01-13 16:53:00,28.0,19.0,-100.00,West,273,8.0,16.0,68,0.00,,,0.01,46.000000,,2014-01-13 16:53:00,
2014-01-13 17:42:00,28.0,16.0,-100.00,WNW,290,6.0,17.0,60,0.00,,,0.01,116.000000,,2014-01-13 17:42:00,
2014-01-13 17:52:00,28.0,16.0,-100.00,WNW,290,6.0,17.0,60,0.00,,,0.01,116.000000,,2014-01-13 17:52:00,
2014-01-13 18:01:00,28.0,16.0,-100.00,WNW,290,6.0,17.0,60,0.00,,,0.01,116.000000,,2014-01-13 18:01:00,
2014-01-13 18:42:00,29.0,15.0,-100.00,WNW,303,5.0,16.0,56,0.00,,,0.01,190.000000,,2014-01-13 18:42:00,
2014-01-13 18:53:00,29.0,15.0,-100.00,WNW,303,5.0,16.0,56,0.00,,,0.01,190.000000,,2014-01-13 18:53:00,
2014-01-13 19:02:00,29.0,15.0,-100.00,WNW,303,5.0,16.0,56,0.00,,,0.01,190.000000,,2014-01-13 19:02:00,
2014-01-13 19:22:00,29.0,15.0,-100.00,West,271,8.0,16.0,56,0.00,,,0.01,172.000000,,2014-01-13 19:22:00,
2014-01-13 19:32:00,29.0,15.0,-100.00,West,271,8.0,16.0,56,0.00,,,0.01,172.000000,,2014-01-13 19:32:00,
2014-01-13 19:42:00,29.0,15.0,-100.00,West,271,8.0,16.0,56,0.00,,,0.01,172.000000,,2014-01-13 19:42:00,
2014-01-13 19:52:00,29.0,15.0,-100.00,West,271,8.0,16.0,56,0.00,,,0.01,172.000000,,2014-01-13 19:52:00,
2014-01-13 20:01:00,29.0,15.0,-100.00,West,271,8.0,16.0,56,0.00,,,0.01,172.000000,,2014-01-13 20:01:00,
2014-01-13 20:42:00,28.0,16.0,-100.00,West,275,8.0,17.0,61,0.00,,,0.01,116.000000,,2014-01-13 20:42:00,
2014-01-13 20:52:00,28.0,16.0,-100.00,West,275,8.0,17.0,61,0.00,,,0.01,116.000000,,2014-01-13 20:52:00,
2014-01-13 21:02:00,28.0,16.0,-100.00,West,275,8.0,17.0,61,0.00,,,0.01,116.000000,,2014-01-13 21:02:00,
2014-01-13 21:03:00,27.0,14.0,-100.00,West,276,7.0,15.0,58,0.00,,,0.01,69.000000,,2014-01-13 21:03:00,
2014-01-13 21:22:00,27.0,14.0,-100.00,West,276,7.0,15.0,58,0.00,,,0.01,69.000000,,2014-01-13 21:22:00,
2014-01-13 21:33:00,27.0,14.0,-100.00,West,276,7.0,15.0,58,0.00,,,0.01,69.000000,,2014-01-13 21:33:00,
2014-01-13 21:43:00,27.0,14.0,-100.00,West,276,7.0,15.0,58,0.00,,,0.01,69.000000,,2014-01-13 21:43:00,
2014-01-13 21:53:00,27.0,14.0,-100.00,West,276,7.0,15.0,58,0.00,,,0.01,69.000000,,2014-01-13 21:53:00,
2014-01-13 22:23:00,27.0,15.0,-100.00,West,263,6.0,14.0,59,0.00,,,0.01,39.000000,,2014-01-13 22:23:00,
2014-01-13 22:33:00,27.0,15.0,-100.00,West,263,6.0,14.0,59,0.00,,,0.01,39.000000,,2014-01-13 22:33:00,
2014-01-13 22:43:00,27.0,15.0,-100.00,West,263,6.0,14.0,59,0.00,,,0.01,39.000000,,2014-01-13 22:43:00,
2014-01-13 22:53:00,27.0,15.0,-100.00,West,263,6.0,14.0,59,0.00,,,0.01,39.000000,,2014-01-13 22:53:00,
2014-01-13 23:02:00,27.0,15.0,-100.00,West,263,6.0,14.0,59,0.00,,,0.01,39.000000,,2014-01-13 23:02:00,
2014-01-13 23:43:00,25.0,13.0,-100.00,West,265,4.0,13.0,61,0.00,,,0.00,9.000000,,2014-01-13 23:43:00,
2014-01-13 23:53:00,25.0,13.0,-100.00,West,265,4.0,13.0,61,0.00,,,0.00,9.000000,,2014-01-13 23:53:00,